sensor_id;sensor_type;location;lat;lon;timestamp;P1;durP1;ratioP1;P2;durP2;ratioP2
20810;SDS011;10566;52.928;10.522;2023-02-11T00:01:08;88.80;;;41.87;;
20810;SDS011;10566;52.928;10.522;2023-02-11T00:03:35;85.83;;;42.23;;
20810;SDS011;10566;52.928;10.522;2023-02-11T00:06:04;84.00;;;41.23;;
20810;SDS011;10566;52.928;10.522;2023-02-11T00:08:33;81.37;;;41.57;;
20810;SDS011;10566;52.928;10.522;2023-02-11T00:10:59;78.20;;;40.50;;
20810;SDS011;10566;52.928;10.522;2023-02-11T00:13:25;81.50;;;41.33;;
20810;SDS011;10566;52.928;10.522;2023-02-11T00:15:51;89.43;;;42.83;;
20810;SDS011;10566;52.928;10.522;2023-02-11T00:18:18;84.97;;;42.43;;
20810;SDS011;10566;52.928;10.522;2023-02-11T00:20:44;91.43;;;43.33;;
20810;SDS011;10566;52.928;10.522;2023-02-11T00:23:10;81.30;;;41.87;;
20810;SDS011;10566;52.928;10.522;2023-02-11T00:25:40;83.73;;;43.60;;
20810;SDS011;10566;52.928;10.522;2023-02-11T00:28:07;87.10;;;42.07;;
20810;SDS011;10566;52.928;10.522;2023-02-11T00:30:33;87.93;;;42.77;;
20810;SDS011;10566;52.928;10.522;2023-02-11T00:32:59;88.90;;;43.33;;
20810;SDS011;10566;52.928;10.522;2023-02-11T00:35:25;87.70;;;41.97;;
20810;SDS011;10566;52.928;10.522;2023-02-11T00:37:52;85.03;;;43.10;;
20810;SDS011;10566;52.928;10.522;2023-02-11T00:40:18;80.73;;;42.37;;
20810;SDS011;10566;52.928;10.522;2023-02-11T00:42:44;88.63;;;43.70;;
20810;SDS011;10566;52.928;10.522;2023-02-11T00:45:11;84.43;;;42.90;;
20810;SDS011;10566;52.928;10.522;2023-02-11T00:47:37;87.00;;;42.60;;
20810;SDS011;10566;52.928;10.522;2023-02-11T00:50:03;87.43;;;41.77;;
20810;SDS011;10566;52.928;10.522;2023-02-11T00:52:30;84.23;;;42.30;;
20810;SDS011;10566;52.928;10.522;2023-02-11T00:54:56;91.13;;;43.63;;
20810;SDS011;10566;52.928;10.522;2023-02-11T00:57:23;85.77;;;43.53;;
20810;SDS011;10566;52.928;10.522;2023-02-11T00:59:49;85.57;;;43.43;;
20810;SDS011;10566;52.928;10.522;2023-02-11T01:02:15;85.33;;;42.03;;
20810;SDS011;10566;52.928;10.522;2023-02-11T01:04:42;83.37;;;41.70;;
20810;SDS011;10566;52.928;10.522;2023-02-11T01:07:08;89.90;;;43.00;;
20810;SDS011;10566;52.928;10.522;2023-02-11T01:09:36;87.40;;;43.57;;
20810;SDS011;10566;52.928;10.522;2023-02-11T01:12:03;88.17;;;43.73;;
20810;SDS011;10566;52.928;10.522;2023-02-11T01:14:29;87.93;;;44.73;;
20810;SDS011;10566;52.928;10.522;2023-02-11T01:16:55;85.93;;;44.53;;
20810;SDS011;10566;52.928;10.522;2023-02-11T01:19:21;93.40;;;44.87;;
20810;SDS011;10566;52.928;10.522;2023-02-11T01:21:47;92.77;;;44.67;;
20810;SDS011;10566;52.928;10.522;2023-02-11T01:24:13;96.83;;;45.13;;
20810;SDS011;10566;52.928;10.522;2023-02-11T01:26:40;89.43;;;44.33;;
20810;SDS011;10566;52.928;10.522;2023-02-11T01:29:06;94.97;;;47.20;;
20810;SDS011;10566;52.928;10.522;2023-02-11T01:31:33;90.13;;;45.27;;
20810;SDS011;10566;52.928;10.522;2023-02-11T01:33:59;92.27;;;45.97;;
20810;SDS011;10566;52.928;10.522;2023-02-11T01:36:25;93.50;;;46.00;;
20810;SDS011;10566;52.928;10.522;2023-02-11T01:38:51;104.70;;;47.37;;
20810;SDS011;10566;52.928;10.522;2023-02-11T01:41:18;99.93;;;47.00;;
20810;SDS011;10566;52.928;10.522;2023-02-11T01:43:45;103.67;;;48.20;;
20810;SDS011;10566;52.928;10.522;2023-02-11T01:48:58;109.90;;;49.33;;
20810;SDS011;10566;52.928;10.522;2023-02-11T01:51:27;104.00;;;48.87;;
20810;SDS011;10566;52.928;10.522;2023-02-11T01:53:56;105.23;;;48.13;;
20810;SDS011;10566;52.928;10.522;2023-02-11T01:56:43;104.40;;;49.70;;
20810;SDS011;10566;52.928;10.522;2023-02-11T01:59:30;108.57;;;49.13;;
20810;SDS011;10566;52.928;10.522;2023-02-11T02:01:59;109.43;;;48.70;;
20810;SDS011;10566;52.928;10.522;2023-02-11T02:04:28;111.77;;;50.03;;
20810;SDS011;10566;52.928;10.522;2023-02-11T02:07:17;103.13;;;49.07;;
20810;SDS011;10566;52.928;10.522;2023-02-11T02:09:45;112.67;;;50.30;;
20810;SDS011;10566;52.928;10.522;2023-02-11T02:12:13;103.70;;;49.47;;
20810;SDS011;10566;52.928;10.522;2023-02-11T02:14:40;107.90;;;49.43;;
20810;SDS011;10566;52.928;10.522;2023-02-11T02:17:08;105.50;;;48.67;;
20810;SDS011;10566;52.928;10.522;2023-02-11T02:40:16;122.13;;;48.90;;
20810;SDS011;10566;52.928;10.522;2023-02-11T02:42:44;119.97;;;50.97;;
20810;SDS011;10566;52.928;10.522;2023-02-11T02:45:11;117.80;;;51.47;;
20810;SDS011;10566;52.928;10.522;2023-02-11T02:47:38;116.37;;;51.60;;
20810;SDS011;10566;52.928;10.522;2023-02-11T02:50:04;112.87;;;50.93;;
20810;SDS011;10566;52.928;10.522;2023-02-11T02:57:56;117.40;;;51.87;;
20810;SDS011;10566;52.928;10.522;2023-02-11T03:05:39;126.50;;;52.20;;
20810;SDS011;10566;52.928;10.522;2023-02-11T03:08:16;123.60;;;52.33;;
20810;SDS011;10566;52.928;10.522;2023-02-11T03:10:47;119.53;;;50.90;;
20810;SDS011;10566;52.928;10.522;2023-02-11T03:13:14;119.53;;;51.87;;
20810;SDS011;10566;52.928;10.522;2023-02-11T03:15:43;119.73;;;51.57;;
20810;SDS011;10566;52.928;10.522;2023-02-11T03:18:10;119.87;;;51.60;;
20810;SDS011;10566;52.928;10.522;2023-02-11T03:20:38;116.60;;;50.83;;
20810;SDS011;10566;52.928;10.522;2023-02-11T03:25:49;119.97;;;52.77;;
20810;SDS011;10566;52.928;10.522;2023-02-11T03:28:23;117.37;;;51.40;;
20810;SDS011;10566;52.928;10.522;2023-02-11T03:30:55;118.83;;;49.80;;
20810;SDS011;10566;52.928;10.522;2023-02-11T03:33:27;110.50;;;48.47;;
20810;SDS011;10566;52.928;10.522;2023-02-11T03:35:55;117.17;;;49.90;;
20810;SDS011;10566;52.928;10.522;2023-02-11T03:38:30;123.17;;;50.20;;
20810;SDS011;10566;52.928;10.522;2023-02-11T03:40:57;111.70;;;47.70;;
20810;SDS011;10566;52.928;10.522;2023-02-11T03:43:33;116.63;;;49.80;;
20810;SDS011;10566;52.928;10.522;2023-02-11T03:46:00;108.03;;;46.57;;
20810;SDS011;10566;52.928;10.522;2023-02-11T03:48:31;106.83;;;48.23;;
20810;SDS011;10566;52.928;10.522;2023-02-11T03:50:59;109.37;;;48.80;;
20810;SDS011;10566;52.928;10.522;2023-02-11T03:53:26;107.67;;;46.70;;
20810;SDS011;10566;52.928;10.522;2023-02-11T03:55:53;107.13;;;47.60;;
20810;SDS011;10566;52.928;10.522;2023-02-11T03:58:21;106.87;;;47.43;;
20810;SDS011;10566;52.928;10.522;2023-02-11T04:00:47;103.83;;;46.77;;
20810;SDS011;10566;52.928;10.522;2023-02-11T04:03:13;103.47;;;47.73;;
20810;SDS011;10566;52.928;10.522;2023-02-11T04:05:39;108.97;;;47.43;;
20810;SDS011;10566;52.928;10.522;2023-02-11T04:08:06;102.40;;;47.00;;
20810;SDS011;10566;52.928;10.522;2023-02-11T04:10:32;105.37;;;46.43;;
20810;SDS011;10566;52.928;10.522;2023-02-11T04:12:58;113.77;;;48.33;;
20810;SDS011;10566;52.928;10.522;2023-02-11T04:15:24;107.07;;;46.67;;
20810;SDS011;10566;52.928;10.522;2023-02-11T04:17:51;114.37;;;47.77;;
20810;SDS011;10566;52.928;10.522;2023-02-11T04:20:17;104.57;;;46.60;;
20810;SDS011;10566;52.928;10.522;2023-02-11T04:22:43;110.70;;;47.07;;
20810;SDS011;10566;52.928;10.522;2023-02-11T04:25:09;106.27;;;46.33;;
20810;SDS011;10566;52.928;10.522;2023-02-11T04:27:35;104.50;;;47.33;;
20810;SDS011;10566;52.928;10.522;2023-02-11T04:30:02;110.93;;;46.83;;
20810;SDS011;10566;52.928;10.522;2023-02-11T04:32:28;109.13;;;46.57;;
20810;SDS011;10566;52.928;10.522;2023-02-11T04:34:54;109.70;;;46.90;;
20810;SDS011;10566;52.928;10.522;2023-02-11T04:37:20;108.63;;;45.63;;
20810;SDS011;10566;52.928;10.522;2023-02-11T04:39:46;101.80;;;44.57;;
20810;SDS011;10566;52.928;10.522;2023-02-11T04:42:13;106.23;;;46.20;;
20810;SDS011;10566;52.928;10.522;2023-02-11T04:44:39;104.60;;;46.93;;
20810;SDS011;10566;52.928;10.522;2023-02-11T04:47:05;112.27;;;46.03;;
20810;SDS011;10566;52.928;10.522;2023-02-11T04:49:31;105.83;;;45.30;;
20810;SDS011;10566;52.928;10.522;2023-02-11T04:51:57;98.47;;;44.50;;
20810;SDS011;10566;52.928;10.522;2023-02-11T04:54:23;102.20;;;44.23;;
20810;SDS011;10566;52.928;10.522;2023-02-11T04:56:49;102.00;;;45.37;;
20810;SDS011;10566;52.928;10.522;2023-02-11T04:59:16;105.00;;;45.03;;
20810;SDS011;10566;52.928;10.522;2023-02-11T05:01:42;103.93;;;45.07;;
20810;SDS011;10566;52.928;10.522;2023-02-11T05:04:08;98.97;;;44.80;;
20810;SDS011;10566;52.928;10.522;2023-02-11T05:06:34;99.70;;;44.57;;
20810;SDS011;10566;52.928;10.522;2023-02-11T05:09:00;97.10;;;43.33;;
20810;SDS011;10566;52.928;10.522;2023-02-11T05:11:26;104.00;;;44.93;;
20810;SDS011;10566;52.928;10.522;2023-02-11T05:13:52;97.50;;;44.93;;
20810;SDS011;10566;52.928;10.522;2023-02-11T05:16:18;94.60;;;42.03;;
20810;SDS011;10566;52.928;10.522;2023-02-11T05:18:45;94.83;;;42.93;;
20810;SDS011;10566;52.928;10.522;2023-02-11T05:21:13;97.20;;;43.30;;
20810;SDS011;10566;52.928;10.522;2023-02-11T05:23:40;103.33;;;43.83;;
20810;SDS011;10566;52.928;10.522;2023-02-11T05:26:06;95.53;;;42.10;;
20810;SDS011;10566;52.928;10.522;2023-02-11T05:28:32;96.53;;;43.77;;
20810;SDS011;10566;52.928;10.522;2023-02-11T05:30:59;95.47;;;43.43;;
20810;SDS011;10566;52.928;10.522;2023-02-11T05:33:25;92.50;;;41.73;;
20810;SDS011;10566;52.928;10.522;2023-02-11T05:35:56;90.33;;;42.13;;
20810;SDS011;10566;52.928;10.522;2023-02-11T05:38:23;84.30;;;41.77;;
20810;SDS011;10566;52.928;10.522;2023-02-11T05:40:49;96.23;;;41.73;;
20810;SDS011;10566;52.928;10.522;2023-02-11T05:43:15;96.83;;;42.67;;
20810;SDS011;10566;52.928;10.522;2023-02-11T05:45:41;91.43;;;42.03;;
20810;SDS011;10566;52.928;10.522;2023-02-11T05:48:07;88.03;;;40.97;;
20810;SDS011;10566;52.928;10.522;2023-02-11T05:50:33;85.63;;;39.40;;
20810;SDS011;10566;52.928;10.522;2023-02-11T05:53:00;93.27;;;41.83;;
20810;SDS011;10566;52.928;10.522;2023-02-11T05:55:26;89.40;;;39.77;;
20810;SDS011;10566;52.928;10.522;2023-02-11T05:57:52;81.37;;;39.70;;
20810;SDS011;10566;52.928;10.522;2023-02-11T06:00:18;84.53;;;40.77;;
20810;SDS011;10566;52.928;10.522;2023-02-11T06:02:44;89.50;;;40.83;;
20810;SDS011;10566;52.928;10.522;2023-02-11T06:05:10;83.30;;;38.93;;
20810;SDS011;10566;52.928;10.522;2023-02-11T06:07:36;84.93;;;39.20;;
20810;SDS011;10566;52.928;10.522;2023-02-11T06:10:02;88.20;;;39.83;;
20810;SDS011;10566;52.928;10.522;2023-02-11T06:12:29;84.33;;;38.07;;
20810;SDS011;10566;52.928;10.522;2023-02-11T06:14:55;92.80;;;39.60;;
20810;SDS011;10566;52.928;10.522;2023-02-11T06:17:21;79.97;;;37.97;;
20810;SDS011;10566;52.928;10.522;2023-02-11T06:19:47;82.37;;;39.77;;
20810;SDS011;10566;52.928;10.522;2023-02-11T06:22:14;84.97;;;39.13;;
20810;SDS011;10566;52.928;10.522;2023-02-11T06:24:40;84.77;;;38.33;;
20810;SDS011;10566;52.928;10.522;2023-02-11T06:27:06;80.13;;;38.70;;
20810;SDS011;10566;52.928;10.522;2023-02-11T06:29:32;79.20;;;37.43;;
20810;SDS011;10566;52.928;10.522;2023-02-11T06:31:59;83.80;;;37.13;;
20810;SDS011;10566;52.928;10.522;2023-02-11T06:34:25;83.20;;;36.87;;
20810;SDS011;10566;52.928;10.522;2023-02-11T06:36:51;73.50;;;35.73;;
20810;SDS011;10566;52.928;10.522;2023-02-11T06:39:17;77.70;;;36.93;;
20810;SDS011;10566;52.928;10.522;2023-02-11T06:41:43;71.33;;;36.00;;
20810;SDS011;10566;52.928;10.522;2023-02-11T06:44:09;85.13;;;35.30;;
20810;SDS011;10566;52.928;10.522;2023-02-11T06:46:36;77.07;;;34.70;;
20810;SDS011;10566;52.928;10.522;2023-02-11T06:49:02;71.80;;;34.20;;
20810;SDS011;10566;52.928;10.522;2023-02-11T06:51:28;76.30;;;34.83;;
20810;SDS011;10566;52.928;10.522;2023-02-11T06:53:54;75.00;;;34.43;;
20810;SDS011;10566;52.928;10.522;2023-02-11T06:56:21;71.33;;;35.07;;
20810;SDS011;10566;52.928;10.522;2023-02-11T06:58:50;67.17;;;34.77;;
20810;SDS011;10566;52.928;10.522;2023-02-11T07:01:17;73.23;;;34.50;;
20810;SDS011;10566;52.928;10.522;2023-02-11T07:03:43;70.37;;;33.57;;
20810;SDS011;10566;52.928;10.522;2023-02-11T07:06:12;69.83;;;33.07;;
20810;SDS011;10566;52.928;10.522;2023-02-11T07:08:38;68.83;;;33.30;;
20810;SDS011;10566;52.928;10.522;2023-02-11T07:11:10;63.73;;;33.33;;
20810;SDS011;10566;52.928;10.522;2023-02-11T07:13:36;66.03;;;32.43;;
20810;SDS011;10566;52.928;10.522;2023-02-11T07:16:04;73.97;;;32.83;;
20810;SDS011;10566;52.928;10.522;2023-02-11T07:18:30;65.60;;;31.63;;
20810;SDS011;10566;52.928;10.522;2023-02-11T07:20:56;67.07;;;31.20;;
20810;SDS011;10566;52.928;10.522;2023-02-11T07:23:22;63.83;;;30.43;;
20810;SDS011;10566;52.928;10.522;2023-02-11T07:25:48;68.53;;;31.47;;
20810;SDS011;10566;52.928;10.522;2023-02-11T07:28:14;67.17;;;31.17;;
20810;SDS011;10566;52.928;10.522;2023-02-11T07:30:40;63.43;;;30.90;;
20810;SDS011;10566;52.928;10.522;2023-02-11T07:33:06;61.27;;;30.33;;
20810;SDS011;10566;52.928;10.522;2023-02-11T07:35:32;61.07;;;30.93;;
20810;SDS011;10566;52.928;10.522;2023-02-11T07:37:58;62.93;;;30.13;;
20810;SDS011;10566;52.928;10.522;2023-02-11T07:40:24;62.87;;;29.63;;
20810;SDS011;10566;52.928;10.522;2023-02-11T07:42:51;63.00;;;30.67;;
20810;SDS011;10566;52.928;10.522;2023-02-11T07:45:17;57.73;;;28.47;;
20810;SDS011;10566;52.928;10.522;2023-02-11T07:47:43;55.93;;;28.57;;
20810;SDS011;10566;52.928;10.522;2023-02-11T07:50:09;56.43;;;28.37;;
20810;SDS011;10566;52.928;10.522;2023-02-11T07:52:35;60.60;;;28.53;;
20810;SDS011;10566;52.928;10.522;2023-02-11T07:55:02;58.57;;;27.63;;
20810;SDS011;10566;52.928;10.522;2023-02-11T07:57:28;56.47;;;27.73;;
20810;SDS011;10566;52.928;10.522;2023-02-11T07:59:54;52.77;;;25.73;;
20810;SDS011;10566;52.928;10.522;2023-02-11T08:02:20;53.20;;;26.67;;
20810;SDS011;10566;52.928;10.522;2023-02-11T08:04:47;52.80;;;27.40;;
20810;SDS011;10566;52.928;10.522;2023-02-11T08:07:14;57.00;;;26.77;;
20810;SDS011;10566;52.928;10.522;2023-02-11T08:09:40;51.83;;;25.67;;
20810;SDS011;10566;52.928;10.522;2023-02-11T08:12:06;51.60;;;25.30;;
20810;SDS011;10566;52.928;10.522;2023-02-11T08:14:32;55.83;;;25.43;;
20810;SDS011;10566;52.928;10.522;2023-02-11T08:16:58;55.27;;;27.13;;
20810;SDS011;10566;52.928;10.522;2023-02-11T08:19:25;57.47;;;24.83;;
20810;SDS011;10566;52.928;10.522;2023-02-11T08:21:53;51.63;;;25.17;;
20810;SDS011;10566;52.928;10.522;2023-02-11T08:24:20;52.03;;;25.57;;
20810;SDS011;10566;52.928;10.522;2023-02-11T08:26:46;52.60;;;25.53;;
20810;SDS011;10566;52.928;10.522;2023-02-11T08:29:13;51.03;;;24.53;;
20810;SDS011;10566;52.928;10.522;2023-02-11T08:31:40;51.03;;;24.20;;
20810;SDS011;10566;52.928;10.522;2023-02-11T08:34:09;51.87;;;24.67;;
20810;SDS011;10566;52.928;10.522;2023-02-11T08:36:36;46.90;;;23.40;;
20810;SDS011;10566;52.928;10.522;2023-02-11T08:39:03;49.07;;;24.27;;
20810;SDS011;10566;52.928;10.522;2023-02-11T08:41:31;45.93;;;23.20;;
20810;SDS011;10566;52.928;10.522;2023-02-11T08:43:57;50.93;;;23.77;;
20810;SDS011;10566;52.928;10.522;2023-02-11T08:46:23;50.07;;;23.00;;
20810;SDS011;10566;52.928;10.522;2023-02-11T08:48:50;49.30;;;23.47;;
20810;SDS011;10566;52.928;10.522;2023-02-11T08:51:17;56.07;;;24.50;;
20810;SDS011;10566;52.928;10.522;2023-02-11T08:53:43;47.93;;;21.87;;
20810;SDS011;10566;52.928;10.522;2023-02-11T08:56:10;44.33;;;22.83;;
20810;SDS011;10566;52.928;10.522;2023-02-11T08:58:36;47.20;;;23.97;;
20810;SDS011;10566;52.928;10.522;2023-02-11T09:01:12;46.60;;;23.50;;
20810;SDS011;10566;52.928;10.522;2023-02-11T09:03:39;49.37;;;23.87;;
20810;SDS011;10566;52.928;10.522;2023-02-11T09:06:05;46.60;;;23.57;;
20810;SDS011;10566;52.928;10.522;2023-02-11T09:08:36;51.40;;;24.63;;
20810;SDS011;10566;52.928;10.522;2023-02-11T09:11:02;48.70;;;24.53;;
20810;SDS011;10566;52.928;10.522;2023-02-11T09:13:28;46.43;;;24.80;;
20810;SDS011;10566;52.928;10.522;2023-02-11T09:15:55;44.13;;;23.03;;
20810;SDS011;10566;52.928;10.522;2023-02-11T09:18:21;50.30;;;24.87;;
20810;SDS011;10566;52.928;10.522;2023-02-11T09:20:47;47.60;;;24.33;;
20810;SDS011;10566;52.928;10.522;2023-02-11T09:23:13;50.00;;;24.13;;
20810;SDS011;10566;52.928;10.522;2023-02-11T09:25:39;49.83;;;24.57;;
20810;SDS011;10566;52.928;10.522;2023-02-11T09:28:05;48.00;;;24.17;;
20810;SDS011;10566;52.928;10.522;2023-02-11T09:30:31;45.13;;;23.67;;
20810;SDS011;10566;52.928;10.522;2023-02-11T09:32:58;46.33;;;23.83;;
20810;SDS011;10566;52.928;10.522;2023-02-11T09:35:24;46.90;;;23.00;;
20810;SDS011;10566;52.928;10.522;2023-02-11T09:37:49;45.77;;;22.83;;
20810;SDS011;10566;52.928;10.522;2023-02-11T09:40:16;47.47;;;23.97;;
20810;SDS011;10566;52.928;10.522;2023-02-11T09:45:29;48.67;;;23.63;;
20810;SDS011;10566;52.928;10.522;2023-02-11T09:47:55;45.77;;;23.90;;
20810;SDS011;10566;52.928;10.522;2023-02-11T09:50:27;46.10;;;24.23;;
20810;SDS011;10566;52.928;10.522;2023-02-11T09:55:33;41.70;;;23.03;;
20810;SDS011;10566;52.928;10.522;2023-02-11T09:58:03;46.30;;;22.83;;
20810;SDS011;10566;52.928;10.522;2023-02-11T10:00:32;39.93;;;21.43;;
20810;SDS011;10566;52.928;10.522;2023-02-11T10:05:36;46.60;;;21.33;;
20810;SDS011;10566;52.928;10.522;2023-02-11T10:08:14;41.67;;;21.33;;
20810;SDS011;10566;52.928;10.522;2023-02-11T10:16:02;41.47;;;21.53;;
20810;SDS011;10566;52.928;10.522;2023-02-11T10:23:51;43.37;;;21.00;;
20810;SDS011;10566;52.928;10.522;2023-02-11T10:26:19;36.23;;;19.70;;
20810;SDS011;10566;52.928;10.522;2023-02-11T10:28:46;38.80;;;19.50;;
20810;SDS011;10566;52.928;10.522;2023-02-11T10:31:26;35.87;;;19.27;;
20810;SDS011;10566;52.928;10.522;2023-02-11T10:33:57;37.03;;;20.37;;
20810;SDS011;10566;52.928;10.522;2023-02-11T10:36:43;35.03;;;20.00;;
20810;SDS011;10566;52.928;10.522;2023-02-11T10:39:24;38.87;;;19.90;;
20810;SDS011;10566;52.928;10.522;2023-02-11T10:46:49;32.03;;;19.13;;
20810;SDS011;10566;52.928;10.522;2023-02-11T10:52:11;38.17;;;19.87;;
20810;SDS011;10566;52.928;10.522;2023-02-11T10:54:38;36.93;;;19.63;;
20810;SDS011;10566;52.928;10.522;2023-02-11T10:57:04;36.33;;;19.13;;
20810;SDS011;10566;52.928;10.522;2023-02-11T10:59:31;37.30;;;19.87;;
20810;SDS011;10566;52.928;10.522;2023-02-11T11:02:01;39.07;;;21.00;;
20810;SDS011;10566;52.928;10.522;2023-02-11T11:07:12;36.07;;;19.57;;
20810;SDS011;10566;52.928;10.522;2023-02-11T11:10:24;35.80;;;19.60;;
20810;SDS011;10566;52.928;10.522;2023-02-11T11:15:24;38.07;;;19.63;;
20810;SDS011;10566;52.928;10.522;2023-02-11T11:18:07;38.37;;;19.60;;
20810;SDS011;10566;52.928;10.522;2023-02-11T11:20:34;38.73;;;19.97;;
20810;SDS011;10566;52.928;10.522;2023-02-11T11:23:20;32.07;;;19.77;;
20810;SDS011;10566;52.928;10.522;2023-02-11T11:28:35;35.27;;;21.00;;
20810;SDS011;10566;52.928;10.522;2023-02-11T11:31:03;37.20;;;19.50;;
20810;SDS011;10566;52.928;10.522;2023-02-11T11:33:31;33.03;;;19.27;;
20810;SDS011;10566;52.928;10.522;2023-02-11T11:35:59;37.87;;;20.33;;
20810;SDS011;10566;52.928;10.522;2023-02-11T11:38:27;34.83;;;19.17;;
20810;SDS011;10566;52.928;10.522;2023-02-11T11:41:15;34.57;;;19.80;;
20810;SDS011;10566;52.928;10.522;2023-02-11T11:44:11;33.33;;;18.53;;
20810;SDS011;10566;52.928;10.522;2023-02-11T11:46:35;33.77;;;18.83;;
20810;SDS011;10566;52.928;10.522;2023-02-11T11:49:03;31.03;;;18.97;;
20810;SDS011;10566;52.928;10.522;2023-02-11T11:51:32;35.97;;;19.03;;
20810;SDS011;10566;52.928;10.522;2023-02-11T11:54:05;36.73;;;19.10;;
20810;SDS011;10566;52.928;10.522;2023-02-11T11:56:34;38.27;;;20.20;;
20810;SDS011;10566;52.928;10.522;2023-02-11T11:59:05;50.23;;;27.13;;
20810;SDS011;10566;52.928;10.522;2023-02-11T12:07:42;36.20;;;19.27;;
20810;SDS011;10566;52.928;10.522;2023-02-11T12:10:21;35.53;;;18.13;;
20810;SDS011;10566;52.928;10.522;2023-02-11T12:12:59;36.03;;;18.27;;
20810;SDS011;10566;52.928;10.522;2023-02-11T12:15:30;31.40;;;18.60;;
20810;SDS011;10566;52.928;10.522;2023-02-11T12:18:15;33.50;;;19.00;;
20810;SDS011;10566;52.928;10.522;2023-02-11T12:26:21;35.23;;;18.47;;
20810;SDS011;10566;52.928;10.522;2023-02-11T12:44:14;32.97;;;17.00;;
20810;SDS011;10566;52.928;10.522;2023-02-11T12:50:19;30.07;;;17.43;;
20810;SDS011;10566;52.928;10.522;2023-02-11T12:54:57;28.07;;;15.50;;
20810;SDS011;10566;52.928;10.522;2023-02-11T12:57:25;31.97;;;17.00;;
20810;SDS011;10566;52.928;10.522;2023-02-11T13:00:03;33.03;;;16.93;;
20810;SDS011;10566;52.928;10.522;2023-02-11T13:05:08;30.60;;;17.30;;
20810;SDS011;10566;52.928;10.522;2023-02-11T13:07:39;33.63;;;17.77;;
20810;SDS011;10566;52.928;10.522;2023-02-11T13:10:15;34.93;;;18.57;;
20810;SDS011;10566;52.928;10.522;2023-02-11T13:12:44;30.60;;;16.80;;
20810;SDS011;10566;52.928;10.522;2023-02-11T13:15:30;31.97;;;16.43;;
20810;SDS011;10566;52.928;10.522;2023-02-11T13:17:59;33.47;;;17.47;;
20810;SDS011;10566;52.928;10.522;2023-02-11T13:28:19;31.73;;;17.73;;
20810;SDS011;10566;52.928;10.522;2023-02-11T13:30:47;35.40;;;17.57;;
20810;SDS011;10566;52.928;10.522;2023-02-11T13:33:54;33.70;;;18.03;;
20810;SDS011;10566;52.928;10.522;2023-02-11T13:36:29;33.40;;;17.10;;
20810;SDS011;10566;52.928;10.522;2023-02-11T13:39:01;31.07;;;17.37;;
20810;SDS011;10566;52.928;10.522;2023-02-11T13:41:28;32.93;;;18.37;;
20810;SDS011;10566;52.928;10.522;2023-02-11T13:43:56;37.87;;;18.57;;
20810;SDS011;10566;52.928;10.522;2023-02-11T13:46:22;36.17;;;20.37;;
20810;SDS011;10566;52.928;10.522;2023-02-11T13:48:50;31.50;;;17.80;;
20810;SDS011;10566;52.928;10.522;2023-02-11T13:51:18;30.93;;;17.73;;
20810;SDS011;10566;52.928;10.522;2023-02-11T13:53:58;32.67;;;17.70;;
20810;SDS011;10566;52.928;10.522;2023-02-11T13:58:57;32.50;;;16.83;;
20810;SDS011;10566;52.928;10.522;2023-02-11T14:04:35;26.70;;;15.93;;
20810;SDS011;10566;52.928;10.522;2023-02-11T14:07:24;33.37;;;16.90;;
20810;SDS011;10566;52.928;10.522;2023-02-11T14:13:05;30.80;;;16.30;;
20810;SDS011;10566;52.928;10.522;2023-02-11T14:15:44;28.80;;;15.97;;
20810;SDS011;10566;52.928;10.522;2023-02-11T14:21:19;29.80;;;16.77;;
20810;SDS011;10566;52.928;10.522;2023-02-11T14:23:47;28.60;;;15.67;;
20810;SDS011;10566;52.928;10.522;2023-02-11T14:31:28;30.13;;;15.97;;
20810;SDS011;10566;52.928;10.522;2023-02-11T14:34:02;28.83;;;15.73;;
20810;SDS011;10566;52.928;10.522;2023-02-11T14:36:42;28.83;;;15.73;;
20810;SDS011;10566;52.928;10.522;2023-02-11T14:39:17;25.87;;;14.27;;
20810;SDS011;10566;52.928;10.522;2023-02-11T14:41:47;33.73;;;15.53;;
20810;SDS011;10566;52.928;10.522;2023-02-11T14:44:22;26.77;;;14.40;;
20810;SDS011;10566;52.928;10.522;2023-02-11T14:46:50;24.77;;;13.77;;
20810;SDS011;10566;52.928;10.522;2023-02-11T14:51:46;25.13;;;13.93;;
20810;SDS011;10566;52.928;10.522;2023-02-11T14:54:16;25.23;;;13.47;;
20810;SDS011;10566;52.928;10.522;2023-02-11T14:56:43;25.93;;;13.77;;
20810;SDS011;10566;52.928;10.522;2023-02-11T14:59:17;22.47;;;13.77;;
20810;SDS011;10566;52.928;10.522;2023-02-11T15:01:45;23.80;;;13.33;;
20810;SDS011;10566;52.928;10.522;2023-02-11T15:04:32;23.07;;;13.53;;
20810;SDS011;10566;52.928;10.522;2023-02-11T15:07:04;25.37;;;13.73;;
20810;SDS011;10566;52.928;10.522;2023-02-11T15:09:41;24.13;;;13.50;;
20810;SDS011;10566;52.928;10.522;2023-02-11T15:12:14;24.70;;;13.90;;
20810;SDS011;10566;52.928;10.522;2023-02-11T15:14:45;26.00;;;14.10;;
20810;SDS011;10566;52.928;10.522;2023-02-11T15:17:11;26.73;;;12.90;;
20810;SDS011;10566;52.928;10.522;2023-02-11T15:19:40;26.73;;;14.70;;
20810;SDS011;10566;52.928;10.522;2023-02-11T15:22:15;27.43;;;14.20;;
20810;SDS011;10566;52.928;10.522;2023-02-11T15:24:42;27.07;;;14.37;;
20810;SDS011;10566;52.928;10.522;2023-02-11T15:27:11;24.73;;;14.17;;
20810;SDS011;10566;52.928;10.522;2023-02-11T15:29:40;26.70;;;14.17;;
20810;SDS011;10566;52.928;10.522;2023-02-11T15:32:20;25.07;;;14.43;;
20810;SDS011;10566;52.928;10.522;2023-02-11T15:34:47;25.33;;;14.17;;
20810;SDS011;10566;52.928;10.522;2023-02-11T15:37:19;26.93;;;14.43;;
20810;SDS011;10566;52.928;10.522;2023-02-11T15:39:45;26.77;;;14.53;;
20810;SDS011;10566;52.928;10.522;2023-02-11T15:44:47;26.33;;;14.63;;
20810;SDS011;10566;52.928;10.522;2023-02-11T15:47:18;32.00;;;15.13;;
20810;SDS011;10566;52.928;10.522;2023-02-11T15:49:44;30.33;;;15.77;;
20810;SDS011;10566;52.928;10.522;2023-02-11T15:52:21;34.83;;;17.07;;
20810;SDS011;10566;52.928;10.522;2023-02-11T15:54:47;27.97;;;14.87;;
20810;SDS011;10566;52.928;10.522;2023-02-11T15:57:15;31.90;;;15.67;;
20810;SDS011;10566;52.928;10.522;2023-02-11T15:59:45;27.40;;;14.47;;
20810;SDS011;10566;52.928;10.522;2023-02-11T16:02:16;28.33;;;16.17;;
20810;SDS011;10566;52.928;10.522;2023-02-11T16:04:52;31.77;;;15.77;;
20810;SDS011;10566;52.928;10.522;2023-02-11T16:07:38;37.07;;;16.07;;
20810;SDS011;10566;52.928;10.522;2023-02-11T16:12:40;31.63;;;15.60;;
20810;SDS011;10566;52.928;10.522;2023-02-11T16:15:28;30.50;;;14.33;;
20810;SDS011;10566;52.928;10.522;2023-02-11T16:17:54;29.03;;;15.33;;
20810;SDS011;10566;52.928;10.522;2023-02-11T16:20:20;29.77;;;15.20;;
20810;SDS011;10566;52.928;10.522;2023-02-11T16:22:46;30.27;;;15.13;;
20810;SDS011;10566;52.928;10.522;2023-02-11T16:25:17;34.47;;;15.80;;
20810;SDS011;10566;52.928;10.522;2023-02-11T16:27:46;33.83;;;14.93;;
20810;SDS011;10566;52.928;10.522;2023-02-11T16:32:45;29.17;;;14.83;;
20810;SDS011;10566;52.928;10.522;2023-02-11T16:35:11;30.03;;;14.93;;
20810;SDS011;10566;52.928;10.522;2023-02-11T16:37:38;29.03;;;14.73;;